Date,TemperatureHighF,TemperatureAvgF,TemperatureLowF,DewpointHighF,DewpointAvgF,DewpointLowF,HumidityHigh,HumidityAvg,HumidityLow,PressureMaxIn,PressureMinIn,WindSpeedMaxMPH,WindSpeedAvgMPH,GustSpeedMaxMPH,PrecipitationSumIn
2013-1-1,46.8,44.0,40.0,39.0,34.8,29.0,79,70,54,29.64,29.49,7,1,7,0.18
2013-1-2,45.4,39.4,36.0,36.0,32.0,25.8,80,75,66,29.82,29.57,6,1,6,0.10
2013-1-3,40.0,35.8,31.0,25.8,22.9,20.7,67,60,50,29.86,29.76,5,1,5,0.00
2013-1-6,54.7,46.6,40.9,36.5,31.2,28.2,64,55,49,29.84,29.73,11,2,11,0.00
2013-1-7,47.9,41.5,35.3,31.2,28.8,25.2,69,61,50,30.13,29.84,8,1,8,0.00
2013-1-8,50.4,40.3,29.9,38.3,31.8,24.3,82,72,62,30.17,30.07,5,0,5,0.00
2013-1-9,43.4,41.9,41.0,35.7,34.3,32.9,76,74,72,30.09,30.06,3,1,3,0.00
2013-1-10,50.4,45.5,41.6,33.5,31.8,30.4,65,59,52,30.20,30.18,3,0,3,0.00
2013-1-11,47.3,43.4,37.6,41.3,36.3,29.1,80,76,66,30.19,29.80,6,1,6,0.07
2013-1-12,55.8,51.3,47.3,49.0,44.5,40.8,78,78,76,29.87,29.78,5,1,6,0.00
2013-1-13,68.9,59.7,52.4,59.5,51.9,45.2,79,76,71,29.83,29.71,5,1,5,0.01
2013-1-14,63.9,56.9,43.7,56.2,49.5,37.6,79,76,74,29.95,29.73,9,2,9,0.92
2013-1-15,43.7,41.3,40.0,37.6,35.0,33.7,80,78,77,30.00,29.80,8,1,8,1.09
2013-1-16,45.2,41.3,37.1,38.4,34.9,30.9,79,78,77,29.81,29.60,6,1,6,0.52
2013-1-17,47.0,41.4,33.5,40.5,35.0,27.6,80,78,77,29.81,29.67,8,1,8,1.02
2013-1-18,37.8,33.9,31.0,29.9,26.9,23.9,80,76,63,30.21,29.78,7,1,7,0.09
2013-1-19,50.2,37.6,28.8,34.0,27.8,22.5,78,69,50,30.17,29.77,9,2,9,0.45
2013-1-20,58.0,46.2,38.5,37.8,31.4,24.5,70,57,39,29.77,29.59,19,4,19,0.03
2013-1-21,52.9,41.5,29.7,31.5,23.9,10.8,63,51,31,29.78,29.49,13,2,13,0.00
2013-1-22,38.9,28.5,22.0,11.3,4.8,-1.0,44,36,27,29.97,29.61,17,3,17,0.00
2013-1-23,33.1,24.8,13.1,11.0,4.7,-1.3,63,43,30,30.04,29.77,17,2,17,0.00
2013-1-24,30.8,25.4,19.1,21.6,11.8,3.0,80,58,36,30.23,29.69,10,2,10,0.00
2013-1-25,26.8,21.0,14.8,18.3,11.0,2.7,80,66,45,30.22,29.77,8,1,8,0.00
2013-1-26,37.6,30.5,19.3,28.5,23.6,14.3,81,75,68,30.12,29.76,5,0,5,0.01
2013-1-27,39.8,32.3,24.3,25.9,23.3,18.7,79,70,57,30.30,30.12,8,1,8,0.04
2013-1-28,54.4,41.7,32.4,44.8,34.1,24.0,80,75,64,30.20,29.81,10,2,11,0.01
2013-1-29,72.7,57.9,45.4,57.3,47.7,38.6,78,70,53,29.85,29.72,7,2,8,0.00
2013-1-30,71.3,65.9,59.8,60.8,56.7,51.5,75,72,69,29.72,29.00,14,4,14,0.06
2013-1-31,65.9,47.3,32.0,57.3,31.5,18.0,77,55,37,29.65,28.94,28,9,28,0.35
2013-2-1,37.4,30.3,22.7,26.0,8.4,3.8,64,40,31,30.09,29.49,23,5,23,0.00
2013-2-2,38.7,28.2,17.6,23.4,14.0,4.1,71,56,38,30.09,29.69,9,1,9,0.00
2013-2-3,43.7,36.0,29.2,33.0,24.7,17.6,78,64,49,29.69,29.51,17,2,17,0.00
2013-2-4,42.3,36.2,24.1,25.0,20.5,13.8,70,53,44,29.83,29.63,8,1,10,0.00
2013-2-5,57.4,47.2,38.2,38.4,32.2,25.0,63,56,46,29.63,29.52,20,3,20,0.00
2013-2-6,54.7,43.4,34.7,35.3,31.1,27.3,77,63,41,30.02,29.62,11,1,11,0.00
2013-2-7,47.2,39.3,32.6,34.2,29.3,23.9,79,67,55,30.10,29.83,6,2,6,0.15
2013-2-8,49.3,42.1,37.3,40.7,34.2,25.8,79,74,56,29.83,29.44,19,3,19,0.69
2013-2-9,47.7,39.0,31.0,25.9,20.1,13.7,62,48,30,30.07,29.64,16,2,16,0.00
2013-2-10,49.0,37.4,24.7,28.0,20.9,12.5,68,52,38,30.19,29.94,7,1,7,0.00
2013-2-11,60.8,51.3,40.3,52.2,43.5,28.0,79,75,54,29.94,29.51,14,3,14,0.05
2013-2-12,59.6,51.6,40.7,46.1,32.6,26.6,72,49,33,29.71,29.52,13,2,13,0.00
2013-2-13,48.6,47.5,46.8,31.3,30.5,29.7,54,52,49,29.63,29.53,4,1,4,0.00
2013-2-16,34.6,33.4,30.1,28.8,26.9,21.8,80,77,68,29.55,29.52,4,1,4,0.00
2013-2-17,33.1,27.8,22.0,21.8,12.7,6.0,79,54,35,29.93,29.55,20,4,24,0.00
2013-2-18,47.7,32.6,17.3,22.2,14.6,5.0,65,49,32,30.09,29.91,9,1,9,0.01
2013-2-19,49.0,41.3,35.6,42.0,32.4,20.8,79,71,48,29.91,29.48,10,2,10,0.08
2013-2-20,45.2,37.7,30.1,32.0,21.3,14.9,78,53,35,29.84,29.57,16,4,16,0.00
2013-2-21,44.3,34.0,24.5,21.0,17.3,13.3,66,51,36,30.00,29.82,12,1,12,0.00
2013-2-22,41.9,36.8,32.9,30.7,24.9,17.6,78,62,51,30.06,29.88,5,1,5,0.02
2013-2-23,43.6,38.0,36.0,36.8,31.8,30.0,80,78,77,29.89,29.52,7,1,7,0.13
2013-2-24,55.6,47.3,35.3,42.6,32.9,23.2,78,58,39,29.79,29.50,10,3,10,0.01
2013-2-25,46.1,36.7,30.6,26.6,22.4,19.1,68,57,43,29.92,29.79,7,1,7,0.00
2013-2-26,52.2,41.4,29.9,44.6,34.0,21.2,78,75,68,29.90,29.24,15,2,15,0.47
2013-2-27,51.1,48.6,45.0,43.5,41.2,37.9,77,76,75,29.25,29.23,7,2,7,0.01
2013-3-3,44.8,36.8,29.2,24.3,20.7,17.0,68,53,39,29.62,29.47,13,1,13,0.00
2013-3-4,48.2,35.7,25.7,20.7,16.0,12.9,62,46,29,29.74,29.62,14,2,14,0.00
2013-3-5,50.6,39.8,29.0,33.7,22.2,12.6,66,50,38,29.78,29.57,5,1,5,0.00
2013-3-9,58.7,46.2,42.3,42.9,26.2,23.2,56,45,41,30.35,30.35,0,0,0,0.00
2013-3-10,63.0,49.0,33.7,36.1,27.5,21.7,67,46,25,30.39,30.27,5,1,6,0.00
2013-3-11,67.0,53.4,40.9,52.5,43.5,34.5,78,70,55,30.30,30.00,6,1,6,0.00
2013-3-12,68.8,59.2,47.0,58.1,50.1,34.6,76,72,55,30.01,29.77,12,3,12,0.35
2013-3-13,54.4,47.0,32.9,36.0,29.9,19.2,78,53,37,30.12,29.97,16,4,16,0.00
2013-3-14,36.9,34.7,32.2,17.5,16.9,16.5,52,48,45,30.15,30.14,4,2,4,0.00
2013-3-17,39.6,38.1,36.7,33.5,32.1,30.8,79,79,78,30.32,30.21,8,2,8,0.05
2013-3-18,39.1,35.8,34.0,32.9,29.8,28.3,80,79,78,30.32,29.92,8,2,8,0.52
2013-3-19,63.2,47.0,35.6,45.2,29.4,11.2,79,57,20,30.03,29.79,20,5,20,0.00
2013-3-20,54.4,46.0,32.0,22.7,16.5,8.0,43,31,20,30.10,29.81,19,4,19,0.00
2013-3-21,46.4,37.3,29.7,26.5,18.2,9.9,78,48,30,29.99,29.75,18,3,18,0.00
2013-3-22,29.7,27.5,25.4,11.1,10.1,9.2,52,48,44,30.01,29.98,7,2,7,0.00
2013-3-23,45.2,43.0,41.8,21.0,20.2,19.5,41,40,38,30.02,29.99,2,0,2,0.00
2013-3-24,43.0,37.7,33.5,31.3,26.6,19.3,79,65,41,30.02,29.66,9,1,9,0.07
2013-3-25,40.5,35.9,33.1,33.5,29.7,27.5,80,78,73,29.77,29.57,12,1,12,0.46
2013-3-26,49.5,39.6,28.8,33.5,27.5,22.8,78,63,42,30.08,29.77,18,2,18,0.04
2013-3-27,51.5,41.4,29.0,31.6,25.5,22.1,77,55,36,30.21,30.08,16,4,16,0.00
2013-3-28,52.7,42.5,30.2,31.2,25.3,21.2,73,52,37,30.31,30.18,16,3,16,0.00
2013-3-29,57.8,46.9,35.5,34.1,27.9,23.4,67,49,32,30.33,30.20,13,2,13,0.00
2013-3-30,63.2,51.5,38.5,35.7,29.8,25.1,61,44,30,30.29,30.14,11,2,11,0.00
2013-3-31,58.5,50.2,45.7,49.7,40.9,31.8,77,71,54,30.17,29.80,6,1,6,0.32
2013-4-1,69.1,56.6,44.5,49.0,40.9,27.3,78,58,38,30.04,29.80,22,4,22,0.00
2013-4-2,54.4,46.7,33.3,28.3,20.7,13.7,58,37,21,30.22,30.03,19,3,19,0.00
2013-4-3,55.8,45.0,31.5,24.9,17.7,13.3,51,35,21,30.41,30.21,14,2,14,0.00
2013-4-4,52.7,41.8,32.0,33.3,22.5,13.7,77,48,32,30.47,30.06,6,1,6,0.45
2013-4-5,63.2,49.5,38.0,41.0,34.3,30.4,79,59,33,30.09,29.90,13,2,13,0.22
2013-4-6,58.0,50.0,41.4,31.8,26.6,21.2,61,41,29,30.37,30.07,9,2,9,0.01
2013-4-7,70.6,54.4,34.6,45.4,37.8,26.7,76,56,37,30.35,30.10,12,2,12,0.00
2013-4-8,79.9,67.0,52.6,55.9,49.7,42.0,73,55,39,30.16,30.05,9,2,9,0.00
2013-4-9,84.2,73.0,60.3,59.4,54.4,51.1,72,54,37,30.18,30.05,12,2,12,0.00
2013-4-10,87.7,79.2,67.9,62.0,58.2,54.9,67,50,36,30.09,29.92,14,3,14,0.00
2013-4-11,83.9,74.6,65.2,63.0,58.9,56.1,73,59,44,29.97,29.82,12,3,12,0.00
2013-4-12,72.5,70.1,65.9,61.2,60.3,57.7,75,71,63,29.83,29.74,9,3,9,0.51
2013-4-19,81.9,71.9,64.4,66.0,60.7,55.6,75,68,58,29.82,29.71,11,3,11,0.53
2013-4-20,64.4,56.4,49.5,55.6,38.4,31.1,74,52,33,30.35,29.79,12,3,12,0.03
2013-4-21,58.5,50.4,42.1,34.7,31.4,26.8,64,49,37,30.61,30.34,11,2,11,0.00
2013-4-22,59.2,47.9,36.5,41.5,36.4,29.0,77,65,48,30.59,30.39,10,2,10,0.03
2013-4-23,64.1,52.2,47.2,49.2,42.7,39.6,76,70,58,30.39,30.18,7,2,7,0.00
2013-4-24,50.0,49.1,48.1,42.4,41.6,41.1,77,75,74,30.18,30.15,3,1,3,0.00
2013-5-6,61.2,60.8,60.5,52.8,52.5,52.2,74,74,73,30.04,30.01,8,4,8,0.20
2013-5-7,76.3,65.0,58.0,62.0,54.3,49.7,76,69,46,30.01,29.88,7,2,8,0.49
2013-5-8,70.2,60.5,54.9,57.9,51.6,47.1,76,73,63,30.06,29.97,5,1,5,0.37
2013-5-9,80.8,65.1,52.7,61.4,53.4,45.4,77,67,48,30.08,30.00,12,2,12,0.01
2013-5-10,85.9,73.0,57.4,65.0,58.4,49.1,75,61,45,30.09,29.95,9,2,9,0.00
2013-5-11,82.3,72.8,61.4,66.0,60.6,52.7,73,66,52,29.99,29.80,16,2,16,0.22
2013-5-12,71.3,64.3,50.8,58.0,47.4,33.8,75,56,34,30.09,29.81,15,2,15,0.03
2013-5-13,64.1,54.3,39.4,45.2,34.7,30.5,75,49,32,30.22,30.08,12,2,12,0.00
2013-5-14,70.0,56.9,38.5,43.3,37.6,29.4,72,50,33,30.27,30.09,11,2,11,0.00
2013-5-15,86.0,72.0,55.3,64.5,54.6,40.9,66,55,46,30.11,29.82,12,3,12,0.00
2013-5-16,74.7,70.2,66.6,61.7,59.1,56.9,71,68,64,30.00,29.86,6,1,6,0.03
2013-5-17,85.5,76.3,62.6,61.2,56.0,51.2,74,50,41,30.18,29.98,5,1,5,0.00
2013-5-18,70.9,64.6,59.8,60.8,55.6,51.1,75,73,62,30.23,30.15,8,1,8,0.71
2013-5-19,80.8,69.2,63.0,67.8,59.5,54.7,75,72,64,30.22,30.11,6,1,6,0.14
2013-5-20,84.8,72.7,64.3,70.5,62.0,55.8,74,70,60,30.15,30.04,6,1,6,0.01
2013-5-21,83.5,74.2,66.6,69.8,63.0,56.9,73,68,62,30.06,29.94,7,1,7,0.00
2013-5-22,86.6,76.3,68.2,72.0,64.4,58.0,72,67,61,30.02,29.90,8,2,8,0.00
2013-5-23,85.7,74.9,68.6,69.9,63.1,58.4,71,67,57,29.97,29.81,6,1,6,0.00
2013-5-24,68.6,61.6,48.6,58.4,48.6,37.0,72,63,45,30.17,29.79,16,2,16,0.02
2013-5-25,71.8,56.6,40.0,47.3,37.6,31.3,72,51,28,30.25,30.11,12,2,12,0.00
2013-5-26,76.5,62.0,44.6,49.7,40.8,34.6,70,48,28,30.26,30.15,11,1,11,0.00
2013-5-27,79.0,66.6,47.3,58.2,50.2,38.3,71,57,40,30.29,30.17,13,1,13,0.00
2013-5-28,86.8,73.9,60.5,69.5,60.4,50.0,70,63,53,30.21,30.10,10,2,10,0.00
2013-5-29,89.6,78.4,67.0,70.4,63.8,56.8,70,61,48,30.18,30.12,10,2,10,0.00
2013-5-30,89.6,78.0,65.3,71.2,63.9,55.7,71,63,49,30.23,29.94,10,2,10,0.00
2013-5-31,89.6,78.2,65.2,70.9,63.8,55.9,73,62,47,30.19,29.86,9,1,9,0.00
2013-6-1,90.7,80.2,69.3,72.0,65.4,59.1,71,61,49,30.09,29.33,10,2,10,0.00
2013-6-2,88.2,77.3,68.6,72.0,64.4,58.9,72,65,55,29.96,29.13,12,2,12,0.35
2013-6-3,85.9,74.7,68.0,70.9,62.6,56.9,71,66,55,29.94,29.09,8,1,8,0.16
2013-6-4,81.0,69.8,60.1,56.9,51.7,46.3,67,54,34,30.14,29.21,7,1,7,0.00
2013-6-5,83.3,71.7,58.9,60.3,54.8,46.7,67,56,44,30.17,29.47,4,1,4,0.00
2013-6-6,80.3,68.9,59.2,65.9,56.6,48.7,68,65,61,30.08,29.37,6,2,6,0.00
2013-6-8,83.3,75.5,67.5,68.3,61.3,54.0,64,62,58,30.90,29.98,6,0,6,0.01
2013-6-9,88.9,76.4,63.7,72.6,61.4,48.8,63,60,56,30.18,30.07,6,1,6,0.00
2013-6-10,83.2,75.1,69.1,65.6,58.5,50.2,60,56,51,30.10,29.85,13,1,13,0.33
2013-6-11,85.9,75.5,66.4,68.7,58.3,47.8,62,55,50,29.92,29.83,16,2,16,0.00
2013-6-12,91.6,79.7,64.4,73.5,63.0,49.0,61,57,53,29.93,29.82,12,2,12,0.00
2013-6-13,77.8,76.2,74.7,59.8,58.3,56.9,54,54,54,29.83,29.78,2,1,2,0.00
2013-6-15,85.3,77.3,68.9,62.8,59.2,54.5,63,54,44,30.06,30.02,8,1,8,0.00
2013-6-16,90.0,77.5,65.2,70.8,60.6,48.5,61,56,52,30.06,29.95,10,2,10,0.00
2013-6-17,86.6,76.4,67.3,68.3,57.5,46.4,56,52,46,30.02,29.91,9,1,9,0.22
2013-6-18,79.4,71.4,63.0,59.1,51.2,41.2,53,49,45,29.97,29.78,7,1,7,0.54
2013-6-19,80.5,70.6,61.6,63.3,51.3,39.7,56,50,43,30.16,29.89,5,1,5,0.01
2013-6-20,84.2,72.2,61.0,63.4,53.2,39.0,63,52,43,30.28,30.16,5,1,5,0.00
2013-6-21,86.9,72.2,57.2,67.2,54.1,40.8,63,53,40,30.30,30.23,7,1,7,0.00
2013-6-22,88.2,74.1,64.6,70.6,55.0,42.8,59,51,41,30.27,30.18,4,1,4,0.15
2013-6-23,88.6,75.8,65.5,68.6,52.5,40.6,53,44,39,30.21,30.12,8,1,8,0.71
2013-6-24,92.0,80.6,66.6,72.4,57.0,38.6,54,45,34,30.17,30.07,7,2,10,0.00
2013-6-25,76.3,74.9,73.6,51.5,49.5,46.4,42,41,38,30.09,30.06,4,1,4,0.00
2013-6-28,92.7,83.2,73.3,72.3,55.8,36.1,52,40,23,29.65,29.53,11,2,11,0.10
2013-6-29,90.4,76.9,64.6,70.7,40.2,7.6,53,30,10,29.73,29.57,6,1,6,0.06
2013-6-30,90.0,77.6,66.6,66.0,32.1,8.4,47,20,1,29.90,29.73,7,1,7,0.78
2013-7-1,86.0,72.1,65.0,48.8,15.7,7.1,28,5,1,30.01,29.87,6,1,6,0.79
2013-7-2,81.7,72.1,66.2,20.0,12.6,8.1,6,1,1,30.22,30.01,5,1,5,0.33
2013-7-3,89.3,74.7,66.1,55.4,16.0,7.9,34,3,1,30.27,30.18,6,1,6,1.02
2013-7-4,91.1,79.8,68.0,68.1,31.2,9.5,48,16,1,30.30,30.20,6,1,6,0.00
2013-7-5,90.2,80.3,67.0,66.2,31.1,8.6,48,15,1,30.29,30.17,8,1,8,0.00
2013-7-6,90.0,81.8,68.8,68.7,33.9,10.1,51,17,1,30.25,30.13,10,1,10,0.00
2013-7-7,90.0,82.1,71.1,64.2,30.7,11.8,44,13,1,30.17,30.04,10,1,10,0.00
2013-7-8,89.3,77.6,67.3,64.7,24.3,9.0,45,10,1,30.16,30.08,7,1,7,0.10
2013-7-9,91.3,80.7,68.2,54.6,20.7,9.6,30,4,1,30.14,30.04,5,1,5,0.00
2013-7-10,93.2,78.0,67.3,58.0,18.5,9.0,31,3,1,30.07,29.94,14,1,14,0.97
2013-7-11,67.7,67.0,66.2,9.3,8.7,8.1,1,1,1,29.98,29.91,4,1,4,0.19
2013-8-11,85.9,80.2,71.1,23.0,18.7,11.7,1,1,1,30.09,30.02,5,0,5,0.05
2013-8-12,91.1,80.4,69.3,69.2,31.8,10.5,50,16,1,30.04,29.93,4,0,4,0.00
2013-8-13,87.3,78.8,69.8,45.1,18.9,10.8,24,3,1,29.94,29.76,11,1,11,0.00
2013-8-14,75.2,68.6,58.7,55.6,35.0,2.3,55,32,1,30.12,29.81,8,1,8,0.05
2013-8-15,61.0,59.5,58.0,4.2,2.9,1.6,1,1,1,30.13,30.11,2,0,2,0.00
2013-11-17,68.8,65.1,63.4,60.3,57.9,56.8,89,78,69,29.82,29.53,4,0,4,0.02
2013-11-18,67.5,63.0,52.9,64.1,45.6,27.9,91,57,28,29.64,29.46,0,0,0,0.05
2013-11-19,51.5,45.6,39.4,28.6,26.2,23.4,57,47,38,30.06,29.65,0,0,0,0.00
2013-11-20,47.9,40.6,35.1,33.8,28.4,24.5,78,62,51,30.23,30.06,0,0,0,0.00
2013-11-21,58.0,46.4,38.5,45.5,38.2,31.8,80,73,62,30.24,30.11,0,0,0,0.00
2013-11-22,69.8,58.0,46.4,56.4,49.1,39.8,85,73,61,30.11,29.73,0,0,0,0.00
2013-11-23,60.8,51.8,39.8,56.2,35.1,16.1,85,55,31,29.87,29.72,7,0,7,0.00
2013-11-24,39.8,29.9,22.3,17.3,6.5,1.8,50,37,27,30.25,29.86,5,0,5,0.00
2013-11-25,36.5,27.9,16.6,14.2,10.3,3.4,66,48,36,30.29,30.08,3,0,3,0.00
2013-11-26,36.5,35.9,35.6,14.5,13.7,12.9,40,40,39,30.10,30.03,0,0,0,0.00
2013-11-27,37.8,35.9,31.3,34.6,30.8,19.4,90,82,59,29.81,29.29,10,3,10,0.06
2013-11-28,39.6,30.9,22.0,21.4,18.1,14.2,75,59,45,30.19,29.81,12,1,12,0.00
2013-11-29,44.1,33.6,25.2,25.2,20.9,18.2,76,60,43,30.40,30.16,7,1,7,0.00
2013-11-30,42.5,33.2,26.3,27.9,22.9,19.3,77,66,52,30.40,30.08,5,0,5,0.00
2013-12-1,52.6,36.0,23.6,34.7,26.6,19.2,86,70,48,30.09,29.73,6,0,6,0.00
2013-12-2,56.2,43.0,30.2,37.3,31.3,24.0,82,64,46,29.73,29.56,4,0,4,0.00
2013-12-3,58.7,46.6,34.2,42.9,37.5,29.8,87,71,55,29.72,29.58,4,0,4,0.00
2013-12-4,58.7,52.9,47.9,52.8,48.1,41.7,90,84,74,29.80,29.71,4,0,4,0.04
2013-12-5,63.5,59.6,53.8,60.9,57.2,50.9,93,92,90,29.83,29.70,5,1,5,0.05
2013-12-6,69.7,58.7,43.7,63.7,55.1,41.0,92,88,75,29.82,29.65,8,2,8,0.00
2013-12-7,44.1,40.6,34.9,41.0,35.4,25.6,92,82,63,30.23,29.78,10,2,10,0.36
2013-12-8,34.7,32.3,30.8,29.9,26.4,22.2,91,79,65,30.26,30.01,7,1,7,0.00
2013-12-9,38.5,36.1,31.3,36.6,34.1,29.1,93,93,91,29.99,29.75,5,0,5,0.05
2013-12-10,38.7,35.8,28.1,36.3,33.4,24.7,93,91,87,29.98,29.69,4,1,6,0.24
2013-12-11,43.9,32.4,23.4,29.3,24.5,20.3,88,74,50,30.14,29.96,7,0,7,0.01
2013-12-12,37.4,31.3,24.8,24.0,17.9,11.7,77,58,46,30.13,29.96,8,1,8,0.00
2013-12-13,45.7,36.4,24.1,24.3,19.0,12.0,62,50,37,30.05,29.95,12,1,12,0.00
2013-12-14,45.2,39.5,36.4,40.7,31.5,23.4,92,74,55,30.01,29.44,7,1,7,0.72
2013-12-15,51.5,41.3,32.8,42.0,33.2,24.4,93,75,49,29.71,29.36,11,2,11,0.01
2013-12-16,45.7,37.5,30.6,32.3,28.6,24.5,81,70,57,29.86,29.70,6,1,6,0.00
2013-12-17,52.6,43.9,30.6,39.4,36.2,26.6,90,75,58,29.83,29.62,11,1,11,0.43
2013-12-18,42.5,35.7,29.5,37.0,27.2,20.9,91,73,49,29.95,29.67,14,2,14,0.01
2013-12-19,60.5,45.1,30.4,30.7,26.5,21.8,71,50,31,29.95,29.86,8,1,8,0.00
2013-12-20,64.3,53.1,43.9,51.8,41.2,28.4,78,64,47,29.90,29.77,9,2,9,0.00
2013-12-21,69.1,61.0,52.0,62.0,53.4,47.3,88,76,65,29.82,29.71,10,2,10,0.00
2013-12-22,72.9,65.7,60.5,65.7,61.3,57.6,92,86,77,29.79,29.63,12,2,12,0.62
2013-12-23,65.9,59.7,41.9,63.2,56.3,30.8,93,88,65,29.91,29.67,10,2,10,0.43
2013-12-24,42.7,37.9,28.8,31.4,26.1,10.5,71,63,43,30.16,29.89,10,2,10,0.00
2013-12-25,32.8,26.6,20.9,16.8,12.2,8.7,71,54,44,30.28,30.13,2,0,2,0.00
2013-12-26,47.2,29.2,21.2,26.8,20.5,16.0,84,72,42,30.11,29.94,10,1,10,0.00
2013-12-27,49.1,35.0,26.1,26.5,21.0,16.9,72,58,38,30.17,30.06,4,0,4,0.00
2013-12-28,59.4,40.6,30.2,32.2,24.8,20.3,68,55,30,30.09,29.87,6,1,6,0.00
2013-12-29,52.6,46.3,41.8,50.2,41.8,28.4,93,85,47,29.88,29.32,10,2,10,0.88
2013-12-30,53.8,41.8,37.1,42.9,35.9,28.8,90,80,59,29.87,29.58,4,0,4,0.00
2013-12-31,48.6,40.3,30.1,33.8,24.1,17.6,81,53,38,30.05,29.85,11,2,12,0.00
2014-1-1,47.2,35.3,27.5,31.7,24.2,17.1,77,64,51,30.12,29.84,5,0,5,0.00
2014-1-2,46.4,38.4,31.7,36.0,31.3,24.0,91,76,64,29.85,29.28,6,0,6,0.34